Strona główna
METAR-TAF:

METAR-TAF

Lotnisko :

Port lotniczy Kuala Lumpur

Kuala Lumpur, Malezja

Szerokość geograficzna: 02-44N, Długość geograficzna: 101-42E, wysokość: 21 m

Aktualna obserwacja pogody

Raport powstał 35 minut temu, godzina 21:00 UTC
Wiatr 2 kt z kierunków zmiennych
Temperatura 26°C
Wilgotność 89%
Ciśnienie 1009 hPa
Widzialność: 7000 m
Mało chmury na wysokości 1700 ft, Cumulonimbus.

METAR: WMKK 102100Z VRB02KT 7000 FEW017CB 26/24 Q1009 NOSIG

czas: 05:35 (21:35 UTC)

Prognoza

Raport powstał 4 godziny i 35 minut temu, godzina 17:00 UTC
Prognoza ważna od 10 godzina 18 UTC do 12 godzina 00 UTC
Wiatr 2 kt z kierunków zmiennych
Widzialność 10 km lub więcej
Mało chmury na wysokości 3000 ft

TAF: WMKK 101700Z 1018/1200 VRB02KT 9999 FEW030

Obserwacja i prognoza pogody dla ponad 4000 lotnisk (raport METAR i TAF).

Dostępne stacje oznaczono żółtymi i czerwonymi punktami na mapie.

Najedź kursorem aby zobaczyć nazwę stacji.

Kliknij aby zobaczyć obserwacje i prognozy pogody.

Aby zmienić mapę: kliknij na zielony przycisk z czarnym krzyżykiem, aby powiększyć; na zielony przycisk z myślnikiem, aby pomniejszyć; na zielone strzałki, aby przejść do map sąsiednich.


METAR-TAF: